sensor_id;sensor_type;location;lat;lon;timestamp;P1;durP1;ratioP1;P2;durP2;ratioP2
43861;SDS011;29510;52.140;5.034;2023-07-20T00:04:42;3.28;;;2.30;;
43861;SDS011;29510;52.140;5.034;2023-07-20T00:14:43;3.05;;;1.90;;
43861;SDS011;29510;52.140;5.034;2023-07-20T00:24:44;3.58;;;2.15;;
43861;SDS011;29510;52.140;5.034;2023-07-20T00:34:45;3.13;;;2.13;;
43861;SDS011;29510;52.140;5.034;2023-07-20T00:44:46;2.05;;;1.52;;
43861;SDS011;29510;52.140;5.034;2023-07-20T00:54:47;2.70;;;1.60;;
43861;SDS011;29510;52.140;5.034;2023-07-20T01:04:48;2.75;;;1.42;;
43861;SDS011;29510;52.140;5.034;2023-07-20T01:14:49;2.35;;;1.73;;
43861;SDS011;29510;52.140;5.034;2023-07-20T01:35:10;2.47;;;1.90;;
43861;SDS011;29510;52.140;5.034;2023-07-20T01:45:14;3.47;;;2.15;;
43861;SDS011;29510;52.140;5.034;2023-07-20T01:55:15;2.60;;;2.08;;
43861;SDS011;29510;52.140;5.034;2023-07-20T02:05:17;3.97;;;2.10;;
43861;SDS011;29510;52.140;5.034;2023-07-20T02:15:18;3.45;;;2.38;;
43861;SDS011;29510;52.140;5.034;2023-07-20T02:25:19;3.50;;;2.53;;
43861;SDS011;29510;52.140;5.034;2023-07-20T02:35:20;5.00;;;3.72;;
43861;SDS011;29510;52.140;5.034;2023-07-20T02:45:21;5.13;;;3.97;;
43861;SDS011;29510;52.140;5.034;2023-07-20T02:55:22;5.45;;;3.60;;
43861;SDS011;29510;52.140;5.034;2023-07-20T03:05:23;4.13;;;3.30;;
43861;SDS011;29510;52.140;5.034;2023-07-20T03:15:28;5.35;;;4.00;;
43861;SDS011;29510;52.140;5.034;2023-07-20T03:25:29;6.22;;;3.78;;
43861;SDS011;29510;52.140;5.034;2023-07-20T03:35:30;4.78;;;3.88;;
43861;SDS011;29510;52.140;5.034;2023-07-20T03:45:31;5.60;;;4.28;;
43861;SDS011;29510;52.140;5.034;2023-07-20T03:55:32;5.10;;;4.10;;
43861;SDS011;29510;52.140;5.034;2023-07-20T04:05:33;5.72;;;4.03;;
43861;SDS011;29510;52.140;5.034;2023-07-20T04:15:34;5.07;;;4.18;;
43861;SDS011;29510;52.140;5.034;2023-07-20T04:25:36;7.93;;;5.28;;
43861;SDS011;29510;52.140;5.034;2023-07-20T04:35:51;6.03;;;4.20;;
43861;SDS011;29510;52.140;5.034;2023-07-20T04:45:53;5.30;;;4.00;;
43861;SDS011;29510;52.140;5.034;2023-07-20T04:55:56;5.43;;;4.45;;
43861;SDS011;29510;52.140;5.034;2023-07-20T05:05:57;6.18;;;4.20;;
43861;SDS011;29510;52.140;5.034;2023-07-20T05:15:58;5.68;;;3.88;;
43861;SDS011;29510;52.140;5.034;2023-07-20T05:25:59;5.25;;;3.55;;
43861;SDS011;29510;52.140;5.034;2023-07-20T05:36:00;3.17;;;2.45;;
43861;SDS011;29510;52.140;5.034;2023-07-20T05:46:01;3.58;;;2.33;;
43861;SDS011;29510;52.140;5.034;2023-07-20T05:56:02;1.92;;;0.95;;
43861;SDS011;29510;52.140;5.034;2023-07-20T06:06:04;1.40;;;0.80;;
43861;SDS011;29510;52.140;5.034;2023-07-20T06:16:06;1.67;;;1.15;;
43861;SDS011;29510;52.140;5.034;2023-07-20T06:26:07;2.08;;;0.85;;
43861;SDS011;29510;52.140;5.034;2023-07-20T06:36:08;1.33;;;0.60;;
43861;SDS011;29510;52.140;5.034;2023-07-20T06:46:09;2.22;;;0.88;;
43861;SDS011;29510;52.140;5.034;2023-07-20T06:56:10;2.67;;;0.50;;
43861;SDS011;29510;52.140;5.034;2023-07-20T07:06:11;1.77;;;0.50;;
43861;SDS011;29510;52.140;5.034;2023-07-20T07:16:12;1.30;;;0.40;;
43861;SDS011;29510;52.140;5.034;2023-07-20T07:26:19;0.60;;;0.38;;
43861;SDS011;29510;52.140;5.034;2023-07-20T07:36:20;1.27;;;0.60;;
43861;SDS011;29510;52.140;5.034;2023-07-20T07:46:21;1.42;;;0.52;;
43861;SDS011;29510;52.140;5.034;2023-07-20T07:56:22;0.70;;;0.30;;
43861;SDS011;29510;52.140;5.034;2023-07-20T08:06:23;1.00;;;0.50;;
43861;SDS011;29510;52.140;5.034;2023-07-20T08:16:28;1.58;;;0.60;;
43861;SDS011;29510;52.140;5.034;2023-07-20T08:26:29;1.15;;;0.47;;
43861;SDS011;29510;52.140;5.034;2023-07-20T08:36:30;1.38;;;0.50;;
43861;SDS011;29510;52.140;5.034;2023-07-20T08:46:32;3.20;;;0.45;;
43861;SDS011;29510;52.140;5.034;2023-07-20T08:56:35;1.00;;;0.43;;
43861;SDS011;29510;52.140;5.034;2023-07-20T09:06:36;2.08;;;0.43;;
43861;SDS011;29510;52.140;5.034;2023-07-20T09:16:46;0.88;;;0.40;;
43861;SDS011;29510;52.140;5.034;2023-07-20T09:26:49;2.25;;;0.65;;
43861;SDS011;29510;52.140;5.034;2023-07-20T09:36:51;1.85;;;0.57;;
43861;SDS011;29510;52.140;5.034;2023-07-20T09:46:52;1.15;;;0.50;;
43861;SDS011;29510;52.140;5.034;2023-07-20T09:56:54;1.52;;;0.50;;
43861;SDS011;29510;52.140;5.034;2023-07-20T10:06:57;4.18;;;1.02;;
43861;SDS011;29510;52.140;5.034;2023-07-20T10:17:02;2.60;;;1.15;;
43861;SDS011;29510;52.140;5.034;2023-07-20T10:27:06;0.90;;;0.40;;
43861;SDS011;29510;52.140;5.034;2023-07-20T10:37:07;0.80;;;0.28;;
43861;SDS011;29510;52.140;5.034;2023-07-20T10:47:09;1.00;;;0.40;;
43861;SDS011;29510;52.140;5.034;2023-07-20T10:57:22;2.10;;;0.73;;
43861;SDS011;29510;52.140;5.034;2023-07-20T11:07:37;1.10;;;0.40;;
43861;SDS011;29510;52.140;5.034;2023-07-20T11:17:39;1.05;;;0.50;;
43861;SDS011;29510;52.140;5.034;2023-07-20T11:27:46;1.65;;;0.60;;
43861;SDS011;29510;52.140;5.034;2023-07-20T11:37:48;1.77;;;0.63;;
43861;SDS011;29510;52.140;5.034;2023-07-20T11:47:49;2.40;;;0.70;;
43861;SDS011;29510;52.140;5.034;2023-07-20T11:58:03;2.03;;;0.80;;
43861;SDS011;29510;52.140;5.034;2023-07-20T12:08:04;1.73;;;0.70;;
43861;SDS011;29510;52.140;5.034;2023-07-20T12:18:05;1.75;;;0.95;;
43861;SDS011;29510;52.140;5.034;2023-07-20T12:28:09;2.58;;;0.70;;
43861;SDS011;29510;52.140;5.034;2023-07-20T12:38:12;0.90;;;0.50;;
43861;SDS011;29510;52.140;5.034;2023-07-20T12:48:13;1.30;;;0.47;;
43861;SDS011;29510;52.140;5.034;2023-07-20T12:58:14;2.03;;;0.50;;
43861;SDS011;29510;52.140;5.034;2023-07-20T13:08:16;1.63;;;0.40;;
43861;SDS011;29510;52.140;5.034;2023-07-20T13:18:17;2.53;;;0.60;;
43861;SDS011;29510;52.140;5.034;2023-07-20T13:28:19;1.65;;;0.55;;
43861;SDS011;29510;52.140;5.034;2023-07-20T13:38:20;2.50;;;0.50;;
43861;SDS011;29510;52.140;5.034;2023-07-20T13:48:21;2.35;;;0.50;;
43861;SDS011;29510;52.140;5.034;2023-07-20T13:58:24;1.25;;;0.43;;
43861;SDS011;29510;52.140;5.034;2023-07-20T14:08:25;0.70;;;0.30;;
43861;SDS011;29510;52.140;5.034;2023-07-20T14:18:26;1.48;;;0.70;;
43861;SDS011;29510;52.140;5.034;2023-07-20T14:28:27;1.40;;;0.40;;
43861;SDS011;29510;52.140;5.034;2023-07-20T14:38:30;0.80;;;0.30;;
43861;SDS011;29510;52.140;5.034;2023-07-20T14:48:31;0.98;;;0.40;;
43861;SDS011;29510;52.140;5.034;2023-07-20T14:58:32;1.08;;;0.40;;
43861;SDS011;29510;52.140;5.034;2023-07-20T15:08:33;1.23;;;0.43;;
43861;SDS011;29510;52.140;5.034;2023-07-20T15:18:34;0.90;;;0.40;;
43861;SDS011;29510;52.140;5.034;2023-07-20T15:28:35;1.10;;;0.40;;
43861;SDS011;29510;52.140;5.034;2023-07-20T15:38:37;0.82;;;0.43;;
43861;SDS011;29510;52.140;5.034;2023-07-20T15:48:38;0.70;;;0.30;;
43861;SDS011;29510;52.140;5.034;2023-07-20T15:58:39;0.70;;;0.25;;
43861;SDS011;29510;52.140;5.034;2023-07-20T16:08:40;1.02;;;0.63;;
43861;SDS011;29510;52.140;5.034;2023-07-20T16:18:41;0.98;;;0.20;;
43861;SDS011;29510;52.140;5.034;2023-07-20T16:28:42;1.73;;;0.40;;
43861;SDS011;29510;52.140;5.034;2023-07-20T16:38:44;0.70;;;0.30;;
43861;SDS011;29510;52.140;5.034;2023-07-20T16:48:46;0.63;;;0.30;;
43861;SDS011;29510;52.140;5.034;2023-07-20T16:58:47;1.08;;;0.50;;
43861;SDS011;29510;52.140;5.034;2023-07-20T17:08:48;0.80;;;0.38;;
43861;SDS011;29510;52.140;5.034;2023-07-20T17:18:49;0.93;;;0.50;;
43861;SDS011;29510;52.140;5.034;2023-07-20T17:28:50;1.83;;;0.50;;
43861;SDS011;29510;52.140;5.034;2023-07-20T17:38:51;1.55;;;0.40;;
43861;SDS011;29510;52.140;5.034;2023-07-20T17:48:52;2.65;;;1.38;;
43861;SDS011;29510;52.140;5.034;2023-07-20T17:58:53;1.08;;;0.50;;
43861;SDS011;29510;52.140;5.034;2023-07-20T18:08:54;1.48;;;0.63;;
43861;SDS011;29510;52.140;5.034;2023-07-20T18:18:55;1.38;;;0.70;;
43861;SDS011;29510;52.140;5.034;2023-07-20T18:28:56;1.25;;;0.63;;
43861;SDS011;29510;52.140;5.034;2023-07-20T18:38:57;1.63;;;0.80;;
43861;SDS011;29510;52.140;5.034;2023-07-20T18:48:58;1.35;;;0.73;;
43861;SDS011;29510;52.140;5.034;2023-07-20T18:58:59;2.20;;;0.70;;
43861;SDS011;29510;52.140;5.034;2023-07-20T19:09:00;2.80;;;1.20;;
43861;SDS011;29510;52.140;5.034;2023-07-20T19:19:01;2.63;;;1.38;;
43861;SDS011;29510;52.140;5.034;2023-07-20T19:29:02;3.97;;;0.90;;
43861;SDS011;29510;52.140;5.034;2023-07-20T19:39:04;1.10;;;0.80;;
43861;SDS011;29510;52.140;5.034;2023-07-20T19:49:06;1.08;;;0.68;;
43861;SDS011;29510;52.140;5.034;2023-07-20T19:59:07;1.60;;;0.80;;
43861;SDS011;29510;52.140;5.034;2023-07-20T20:09:09;3.20;;;0.80;;
43861;SDS011;29510;52.140;5.034;2023-07-20T20:19:10;1.63;;;1.00;;
43861;SDS011;29510;52.140;5.034;2023-07-20T20:29:11;1.70;;;1.00;;
43861;SDS011;29510;52.140;5.034;2023-07-20T20:39:12;2.88;;;1.50;;
43861;SDS011;29510;52.140;5.034;2023-07-20T20:49:13;2.28;;;1.15;;
43861;SDS011;29510;52.140;5.034;2023-07-20T20:59:15;2.05;;;0.73;;
43861;SDS011;29510;52.140;5.034;2023-07-20T21:09:20;2.17;;;0.88;;
43861;SDS011;29510;52.140;5.034;2023-07-20T21:19:21;1.40;;;0.65;;
43861;SDS011;29510;52.140;5.034;2023-07-20T21:29:22;1.63;;;0.80;;
43861;SDS011;29510;52.140;5.034;2023-07-20T21:39:24;2.22;;;1.15;;
43861;SDS011;29510;52.140;5.034;2023-07-20T21:49:25;3.17;;;1.00;;
43861;SDS011;29510;52.140;5.034;2023-07-20T21:59:26;1.88;;;1.00;;
43861;SDS011;29510;52.140;5.034;2023-07-20T22:09:27;1.85;;;1.00;;
43861;SDS011;29510;52.140;5.034;2023-07-20T22:19:28;2.25;;;0.90;;
43861;SDS011;29510;52.140;5.034;2023-07-20T22:29:29;2.90;;;1.10;;
43861;SDS011;29510;52.140;5.034;2023-07-20T22:39:34;3.30;;;1.40;;
43861;SDS011;29510;52.140;5.034;2023-07-20T22:49:35;2.63;;;1.40;;
43861;SDS011;29510;52.140;5.034;2023-07-20T22:59:36;3.00;;;1.33;;
43861;SDS011;29510;52.140;5.034;2023-07-20T23:09:37;2.58;;;1.30;;
43861;SDS011;29510;52.140;5.034;2023-07-20T23:19:39;2.10;;;1.10;;
43861;SDS011;29510;52.140;5.034;2023-07-20T23:29:41;1.67;;;1.10;;
43861;SDS011;29510;52.140;5.034;2023-07-20T23:39:44;2.58;;;1.30;;
43861;SDS011;29510;52.140;5.034;2023-07-20T23:49:45;5.22;;;1.55;;
43861;SDS011;29510;52.140;5.034;2023-07-20T23:59:46;2.20;;;1.27;;
